sensor_id;sensor_type;location;lat;lon;timestamp;P1;durP1;ratioP1;P2;durP2;ratioP2
34876;SDS011;21086;44.780;17.194;2022-08-01T00:12:33;2.40;;;1.67;;
34876;SDS011;21086;44.780;17.194;2022-08-01T00:33:12;2.22;;;1.70;;
34876;SDS011;21086;44.780;17.194;2022-08-01T00:35:39;2.15;;;1.50;;
34876;SDS011;21086;44.780;17.194;2022-08-01T00:40:51;2.80;;;1.67;;
34876;SDS011;21086;44.780;17.194;2022-08-01T00:43:18;4.85;;;1.60;;
34876;SDS011;21086;44.780;17.194;2022-08-01T00:45:45;3.25;;;1.48;;
34876;SDS011;21086;44.780;17.194;2022-08-01T00:59:03;2.65;;;1.70;;
34876;SDS011;21086;44.780;17.194;2022-08-01T01:01:30;3.28;;;1.90;;
34876;SDS011;21086;44.780;17.194;2022-08-01T01:04:05;2.47;;;1.70;;
34876;SDS011;21086;44.780;17.194;2022-08-01T01:17:32;2.45;;;1.42;;
34876;SDS011;21086;44.780;17.194;2022-08-01T01:23:24;2.85;;;1.40;;
34876;SDS011;21086;44.780;17.194;2022-08-01T01:26:23;2.17;;;1.60;;
34876;SDS011;21086;44.780;17.194;2022-08-01T01:31:52;1.95;;;1.75;;
34876;SDS011;21086;44.780;17.194;2022-08-01T01:34:25;2.75;;;2.08;;
34876;SDS011;21086;44.780;17.194;2022-08-01T01:36:54;7.20;;;1.67;;
34876;SDS011;21086;44.780;17.194;2022-08-01T01:39:24;5.95;;;1.92;;
34876;SDS011;21086;44.780;17.194;2022-08-01T02:15:13;5.28;;;1.98;;
34876;SDS011;21086;44.780;17.194;2022-08-01T02:17:42;2.63;;;1.63;;
34876;SDS011;21086;44.780;17.194;2022-08-01T02:22:52;4.18;;;2.30;;
34876;SDS011;21086;44.780;17.194;2022-08-01T02:28:17;2.42;;;1.83;;
34876;SDS011;21086;44.780;17.194;2022-08-01T02:37:15;2.20;;;1.90;;
34876;SDS011;21086;44.780;17.194;2022-08-01T02:43:12;2.33;;;1.80;;
34876;SDS011;21086;44.780;17.194;2022-08-01T02:45:45;2.63;;;1.65;;
34876;SDS011;21086;44.780;17.194;2022-08-01T02:48:17;5.18;;;1.85;;
34876;SDS011;21086;44.780;17.194;2022-08-01T02:50:47;2.72;;;1.70;;
34876;SDS011;21086;44.780;17.194;2022-08-01T03:11:56;2.38;;;2.08;;
34876;SDS011;21086;44.780;17.194;2022-08-01T03:14:27;3.00;;;1.75;;
34876;SDS011;21086;44.780;17.194;2022-08-01T03:16:56;2.90;;;2.10;;
34876;SDS011;21086;44.780;17.194;2022-08-01T03:24:56;3.03;;;2.05;;
34876;SDS011;21086;44.780;17.194;2022-08-01T03:37:01;2.50;;;1.90;;
34876;SDS011;21086;44.780;17.194;2022-08-01T03:50:22;2.80;;;2.10;;
34876;SDS011;21086;44.780;17.194;2022-08-01T03:58:30;2.70;;;1.95;;
34876;SDS011;21086;44.780;17.194;2022-08-01T04:06:45;3.10;;;2.15;;
34876;SDS011;21086;44.780;17.194;2022-08-01T04:09:14;2.50;;;2.20;;
34876;SDS011;21086;44.780;17.194;2022-08-01T04:11:41;3.25;;;2.60;;
34876;SDS011;21086;44.780;17.194;2022-08-01T04:17:21;3.22;;;2.25;;
34876;SDS011;21086;44.780;17.194;2022-08-01T04:19:48;4.10;;;2.28;;
34876;SDS011;21086;44.780;17.194;2022-08-01T04:22:15;4.13;;;2.20;;
34876;SDS011;21086;44.780;17.194;2022-08-01T04:27:20;3.88;;;2.25;;
34876;SDS011;21086;44.780;17.194;2022-08-01T04:30:07;3.45;;;2.65;;
34876;SDS011;21086;44.780;17.194;2022-08-01T04:32:43;2.58;;;2.10;;
34876;SDS011;21086;44.780;17.194;2022-08-01T04:35:13;4.35;;;2.40;;
34876;SDS011;21086;44.780;17.194;2022-08-01T04:40:48;10.20;;;5.55;;
34876;SDS011;21086;44.780;17.194;2022-08-01T04:43:17;12.88;;;8.25;;
34876;SDS011;21086;44.780;17.194;2022-08-01T04:45:46;7.88;;;5.45;;
34876;SDS011;21086;44.780;17.194;2022-08-01T05:09:30;11.00;;;7.55;;
34876;SDS011;21086;44.780;17.194;2022-08-01T05:11:58;11.30;;;6.45;;
34876;SDS011;21086;44.780;17.194;2022-08-01T05:17:18;6.20;;;4.18;;
34876;SDS011;21086;44.780;17.194;2022-08-01T05:27:52;4.20;;;2.13;;
34876;SDS011;21086;44.780;17.194;2022-08-01T05:30:19;4.70;;;2.75;;
34876;SDS011;21086;44.780;17.194;2022-08-01T05:32:46;4.90;;;2.97;;
34876;SDS011;21086;44.780;17.194;2022-08-01T05:35:13;5.47;;;3.95;;
34876;SDS011;21086;44.780;17.194;2022-08-01T05:40:15;3.80;;;3.25;;
34876;SDS011;21086;44.780;17.194;2022-08-01T06:15:36;18.20;;;14.05;;
34876;SDS011;21086;44.780;17.194;2022-08-01T06:59:23;2.35;;;1.88;;
34876;SDS011;21086;44.780;17.194;2022-08-01T07:12:02;2.00;;;1.70;;
34876;SDS011;21086;44.780;17.194;2022-08-01T07:14:31;3.65;;;2.00;;
34876;SDS011;21086;44.780;17.194;2022-08-01T07:49:36;3.22;;;2.10;;
34876;SDS011;21086;44.780;17.194;2022-08-01T07:52:06;2.67;;;2.28;;
34876;SDS011;21086;44.780;17.194;2022-08-01T07:54:34;3.78;;;2.47;;
34876;SDS011;21086;44.780;17.194;2022-08-01T08:06:20;3.05;;;1.70;;
34876;SDS011;21086;44.780;17.194;2022-08-01T08:08:48;2.53;;;1.35;;
34876;SDS011;21086;44.780;17.194;2022-08-01T08:11:19;2.22;;;1.55;;
34876;SDS011;21086;44.780;17.194;2022-08-01T08:13:47;2.53;;;1.42;;
34876;SDS011;21086;44.780;17.194;2022-08-01T08:16:14;4.47;;;1.73;;
34876;SDS011;21086;44.780;17.194;2022-08-01T08:18:42;1.52;;;1.08;;
34876;SDS011;21086;44.780;17.194;2022-08-01T08:21:09;2.35;;;1.20;;
34876;SDS011;21086;44.780;17.194;2022-08-01T08:23:36;1.10;;;1.00;;
34876;SDS011;21086;44.780;17.194;2022-08-01T08:26:23;1.98;;;0.90;;
34876;SDS011;21086;44.780;17.194;2022-08-01T08:28:53;3.55;;;1.42;;
34876;SDS011;21086;44.780;17.194;2022-08-01T08:31:22;1.17;;;1.08;;
34876;SDS011;21086;44.780;17.194;2022-08-01T08:34:09;1.77;;;1.30;;
34876;SDS011;21086;44.780;17.194;2022-08-01T08:36:38;1.55;;;1.23;;
34876;SDS011;21086;44.780;17.194;2022-08-01T08:39:48;1.90;;;1.20;;
34876;SDS011;21086;44.780;17.194;2022-08-01T08:45:19;5.32;;;1.60;;
34876;SDS011;21086;44.780;17.194;2022-08-01T08:54:22;1.40;;;1.23;;
34876;SDS011;21086;44.780;17.194;2022-08-01T08:56:57;1.85;;;1.20;;
34876;SDS011;21086;44.780;17.194;2022-08-01T09:10:02;1.58;;;1.30;;
34876;SDS011;21086;44.780;17.194;2022-08-01T09:12:29;1.55;;;1.10;;
34876;SDS011;21086;44.780;17.194;2022-08-01T09:14:57;4.32;;;2.72;;
34876;SDS011;21086;44.780;17.194;2022-08-01T09:26:35;2.15;;;1.15;;
34876;SDS011;21086;44.780;17.194;2022-08-01T09:35:25;1.45;;;1.13;;
34876;SDS011;21086;44.780;17.194;2022-08-01T09:43:22;4.10;;;1.00;;
34876;SDS011;21086;44.780;17.194;2022-08-01T09:51:38;2.50;;;1.30;;
34876;SDS011;21086;44.780;17.194;2022-08-01T10:00:23;1.60;;;1.17;;
34876;SDS011;21086;44.780;17.194;2022-08-01T10:11:26;1.35;;;1.10;;
34876;SDS011;21086;44.780;17.194;2022-08-01T10:14:02;1.55;;;1.08;;
34876;SDS011;21086;44.780;17.194;2022-08-01T10:16:29;1.42;;;0.77;;
34876;SDS011;21086;44.780;17.194;2022-08-01T10:59:29;1.30;;;1.10;;
34876;SDS011;21086;44.780;17.194;2022-08-01T11:02:27;1.65;;;0.80;;
34876;SDS011;21086;44.780;17.194;2022-08-01T11:05:02;1.33;;;0.90;;
34876;SDS011;21086;44.780;17.194;2022-08-01T11:08:01;0.93;;;0.77;;
34876;SDS011;21086;44.780;17.194;2022-08-01T11:11:03;2.33;;;1.10;;
34876;SDS011;21086;44.780;17.194;2022-08-01T11:16:31;4.35;;;1.70;;
34876;SDS011;21086;44.780;17.194;2022-08-01T11:19:03;2.03;;;0.70;;
34876;SDS011;21086;44.780;17.194;2022-08-01T11:32:48;2.25;;;0.70;;
34876;SDS011;21086;44.780;17.194;2022-08-01T11:35:37;1.58;;;1.00;;
34876;SDS011;21086;44.780;17.194;2022-08-01T11:41:13;1.83;;;1.15;;
34876;SDS011;21086;44.780;17.194;2022-08-01T11:44:14;3.53;;;1.30;;
34876;SDS011;21086;44.780;17.194;2022-08-01T11:46:53;3.10;;;1.23;;
34876;SDS011;21086;44.780;17.194;2022-08-01T11:49:26;2.78;;;1.30;;
34876;SDS011;21086;44.780;17.194;2022-08-01T11:52:07;2.53;;;1.40;;
34876;SDS011;21086;44.780;17.194;2022-08-01T11:54:35;2.67;;;1.23;;
34876;SDS011;21086;44.780;17.194;2022-08-01T11:57:19;1.85;;;0.95;;
34876;SDS011;21086;44.780;17.194;2022-08-01T11:59:49;5.68;;;3.10;;
34876;SDS011;21086;44.780;17.194;2022-08-01T12:02:31;2.03;;;1.50;;
34876;SDS011;21086;44.780;17.194;2022-08-01T12:05:01;4.47;;;0.95;;
34876;SDS011;21086;44.780;17.194;2022-08-01T12:07:30;1.70;;;1.20;;
34876;SDS011;21086;44.780;17.194;2022-08-01T12:10:03;3.30;;;1.00;;
34876;SDS011;21086;44.780;17.194;2022-08-01T12:12:34;1.10;;;1.00;;
34876;SDS011;21086;44.780;17.194;2022-08-01T12:15:04;2.72;;;1.08;;
34876;SDS011;21086;44.780;17.194;2022-08-01T12:20:04;2.58;;;0.73;;
34876;SDS011;21086;44.780;17.194;2022-08-01T12:22:33;0.65;;;0.65;;
34876;SDS011;21086;44.780;17.194;2022-08-01T12:25:08;1.55;;;0.90;;
34876;SDS011;21086;44.780;17.194;2022-08-01T12:28:01;0.90;;;0.73;;
34876;SDS011;21086;44.780;17.194;2022-08-01T12:30:32;1.52;;;0.70;;
34876;SDS011;21086;44.780;17.194;2022-08-01T12:33:03;1.20;;;0.90;;
34876;SDS011;21086;44.780;17.194;2022-08-01T12:35:31;2.75;;;1.80;;
34876;SDS011;21086;44.780;17.194;2022-08-01T12:38:00;1.90;;;1.13;;
34876;SDS011;21086;44.780;17.194;2022-08-01T12:40:36;1.00;;;0.70;;
34876;SDS011;21086;44.780;17.194;2022-08-01T12:43:15;1.38;;;0.80;;
34876;SDS011;21086;44.780;17.194;2022-08-01T12:45:54;1.77;;;0.80;;
34876;SDS011;21086;44.780;17.194;2022-08-01T12:48:23;0.88;;;0.70;;
34876;SDS011;21086;44.780;17.194;2022-08-01T12:50:51;1.20;;;0.77;;
34876;SDS011;21086;44.780;17.194;2022-08-01T12:53:20;1.95;;;0.70;;
34876;SDS011;21086;44.780;17.194;2022-08-01T12:55:52;1.75;;;0.82;;
34876;SDS011;21086;44.780;17.194;2022-08-01T12:58:33;2.03;;;0.93;;
34876;SDS011;21086;44.780;17.194;2022-08-01T13:01:08;1.00;;;0.80;;
34876;SDS011;21086;44.780;17.194;2022-08-01T13:03:37;1.60;;;0.85;;
34876;SDS011;21086;44.780;17.194;2022-08-01T13:06:11;1.80;;;0.85;;
34876;SDS011;21086;44.780;17.194;2022-08-01T13:08:41;4.20;;;1.60;;
34876;SDS011;21086;44.780;17.194;2022-08-01T13:11:08;4.32;;;1.40;;
34876;SDS011;21086;44.780;17.194;2022-08-01T13:13:42;4.60;;;0.65;;
34876;SDS011;21086;44.780;17.194;2022-08-01T13:16:17;3.33;;;1.20;;
34876;SDS011;21086;44.780;17.194;2022-08-01T13:19:03;4.53;;;1.00;;
34876;SDS011;21086;44.780;17.194;2022-08-01T13:21:32;0.75;;;0.60;;
34876;SDS011;21086;44.780;17.194;2022-08-01T13:24:22;3.08;;;0.82;;
34876;SDS011;21086;44.780;17.194;2022-08-01T13:26:52;1.20;;;0.63;;
34876;SDS011;21086;44.780;17.194;2022-08-01T13:29:34;2.83;;;0.73;;
34876;SDS011;21086;44.780;17.194;2022-08-01T13:32:11;2.10;;;0.50;;
34876;SDS011;21086;44.780;17.194;2022-08-01T13:35:01;1.15;;;0.55;;
34876;SDS011;21086;44.780;17.194;2022-08-01T13:37:29;1.13;;;0.60;;
34876;SDS011;21086;44.780;17.194;2022-08-01T13:39:57;1.30;;;0.47;;
34876;SDS011;21086;44.780;17.194;2022-08-01T13:42:25;0.60;;;0.40;;
34876;SDS011;21086;44.780;17.194;2022-08-01T13:44:52;2.42;;;0.60;;
34876;SDS011;21086;44.780;17.194;2022-08-01T13:47:18;0.65;;;0.30;;
34876;SDS011;21086;44.780;17.194;2022-08-01T13:49:57;0.93;;;0.50;;
34876;SDS011;21086;44.780;17.194;2022-08-01T13:52:28;0.45;;;0.40;;
34876;SDS011;21086;44.780;17.194;2022-08-01T13:54:55;0.38;;;0.30;;
34876;SDS011;21086;44.780;17.194;2022-08-01T13:57:22;1.50;;;0.50;;
34876;SDS011;21086;44.780;17.194;2022-08-01T13:59:49;0.98;;;0.50;;
34876;SDS011;21086;44.780;17.194;2022-08-01T14:02:19;1.05;;;0.55;;
34876;SDS011;21086;44.780;17.194;2022-08-01T14:04:46;1.23;;;0.50;;
34876;SDS011;21086;44.780;17.194;2022-08-01T14:07:13;1.85;;;0.50;;
34876;SDS011;21086;44.780;17.194;2022-08-01T14:09:40;0.80;;;0.47;;
34876;SDS011;21086;44.780;17.194;2022-08-01T14:12:28;1.73;;;0.70;;
34876;SDS011;21086;44.780;17.194;2022-08-01T14:14:55;3.20;;;0.52;;
34876;SDS011;21086;44.780;17.194;2022-08-01T14:17:22;1.15;;;0.60;;
34876;SDS011;21086;44.780;17.194;2022-08-01T14:19:49;1.80;;;0.80;;
34876;SDS011;21086;44.780;17.194;2022-08-01T14:22:17;0.77;;;0.60;;
34876;SDS011;21086;44.780;17.194;2022-08-01T14:24:43;1.25;;;0.45;;
34876;SDS011;21086;44.780;17.194;2022-08-01T14:27:10;1.33;;;0.40;;
34876;SDS011;21086;44.780;17.194;2022-08-01T14:29:37;1.35;;;0.40;;
34876;SDS011;21086;44.780;17.194;2022-08-01T14:32:24;0.93;;;0.52;;
34876;SDS011;21086;44.780;17.194;2022-08-01T14:34:54;0.20;;;0.20;;
34876;SDS011;21086;44.780;17.194;2022-08-01T14:37:22;0.60;;;0.47;;
34876;SDS011;21086;44.780;17.194;2022-08-01T14:39:56;4.72;;;0.80;;
34876;SDS011;21086;44.780;17.194;2022-08-01T14:42:25;1.48;;;0.50;;
34876;SDS011;21086;44.780;17.194;2022-08-01T14:44:52;0.68;;;0.40;;
34876;SDS011;21086;44.780;17.194;2022-08-01T14:47:19;0.75;;;0.55;;
34876;SDS011;21086;44.780;17.194;2022-08-01T14:49:48;0.52;;;0.40;;
34876;SDS011;21086;44.780;17.194;2022-08-01T14:52:15;0.82;;;0.30;;
34876;SDS011;21086;44.780;17.194;2022-08-01T14:54:43;0.60;;;0.43;;
34876;SDS011;21086;44.780;17.194;2022-08-01T14:57:10;1.65;;;0.60;;
34876;SDS011;21086;44.780;17.194;2022-08-01T14:59:36;2.78;;;0.73;;
34876;SDS011;21086;44.780;17.194;2022-08-01T15:02:03;0.68;;;0.45;;
34876;SDS011;21086;44.780;17.194;2022-08-01T15:04:31;1.75;;;0.40;;
34876;SDS011;21086;44.780;17.194;2022-08-01T15:06:58;2.28;;;0.60;;
34876;SDS011;21086;44.780;17.194;2022-08-01T15:09:25;1.92;;;0.80;;
34876;SDS011;21086;44.780;17.194;2022-08-01T15:11:51;1.45;;;0.50;;
34876;SDS011;21086;44.780;17.194;2022-08-01T15:14:18;0.70;;;0.47;;
34876;SDS011;21086;44.780;17.194;2022-08-01T15:17:04;1.45;;;0.60;;
34876;SDS011;21086;44.780;17.194;2022-08-01T15:19:33;1.20;;;0.75;;
34876;SDS011;21086;44.780;17.194;2022-08-01T15:22:05;0.52;;;0.32;;
34876;SDS011;21086;44.780;17.194;2022-08-01T15:24:33;0.50;;;0.40;;
34876;SDS011;21086;44.780;17.194;2022-08-01T15:27:00;2.90;;;0.50;;
34876;SDS011;21086;44.780;17.194;2022-08-01T15:29:27;2.13;;;0.50;;
34876;SDS011;21086;44.780;17.194;2022-08-01T15:31:55;1.02;;;0.55;;
34876;SDS011;21086;44.780;17.194;2022-08-01T15:34:22;3.20;;;0.60;;
34876;SDS011;21086;44.780;17.194;2022-08-01T15:36:50;4.50;;;0.50;;
34876;SDS011;21086;44.780;17.194;2022-08-01T15:39:17;0.95;;;0.60;;
34876;SDS011;21086;44.780;17.194;2022-08-01T15:41:44;0.95;;;0.40;;
34876;SDS011;21086;44.780;17.194;2022-08-01T15:44:11;0.85;;;0.40;;
34876;SDS011;21086;44.780;17.194;2022-08-01T15:46:38;0.88;;;0.57;;
34876;SDS011;21086;44.780;17.194;2022-08-01T15:49:05;5.28;;;0.68;;
34876;SDS011;21086;44.780;17.194;2022-08-01T15:51:32;1.42;;;0.60;;
34876;SDS011;21086;44.780;17.194;2022-08-01T15:53:59;2.65;;;0.90;;
34876;SDS011;21086;44.780;17.194;2022-08-01T15:56:36;0.75;;;0.50;;
34876;SDS011;21086;44.780;17.194;2022-08-01T15:59:05;1.40;;;0.75;;
34876;SDS011;21086;44.780;17.194;2022-08-01T16:01:31;1.60;;;0.43;;
34876;SDS011;21086;44.780;17.194;2022-08-01T16:03:59;4.53;;;0.60;;
34876;SDS011;21086;44.780;17.194;2022-08-01T16:06:26;1.73;;;0.60;;
34876;SDS011;21086;44.780;17.194;2022-08-01T16:08:53;1.85;;;0.70;;
34876;SDS011;21086;44.780;17.194;2022-08-01T16:11:20;0.80;;;0.73;;
34876;SDS011;21086;44.780;17.194;2022-08-01T16:13:49;0.65;;;0.40;;
34876;SDS011;21086;44.780;17.194;2022-08-01T16:16:16;0.93;;;0.50;;
34876;SDS011;21086;44.780;17.194;2022-08-01T16:18:43;0.73;;;0.50;;
34876;SDS011;21086;44.780;17.194;2022-08-01T16:21:19;2.72;;;0.52;;
34876;SDS011;21086;44.780;17.194;2022-08-01T16:23:46;0.60;;;0.40;;
34876;SDS011;21086;44.780;17.194;2022-08-01T16:26:13;2.03;;;0.60;;
34876;SDS011;21086;44.780;17.194;2022-08-01T16:28:53;1.25;;;0.40;;
34876;SDS011;21086;44.780;17.194;2022-08-01T16:31:20;1.88;;;0.50;;
34876;SDS011;21086;44.780;17.194;2022-08-01T16:34:06;1.73;;;0.50;;
34876;SDS011;21086;44.780;17.194;2022-08-01T16:36:34;0.70;;;0.50;;
34876;SDS011;21086;44.780;17.194;2022-08-01T16:39:01;1.10;;;0.50;;
34876;SDS011;21086;44.780;17.194;2022-08-01T16:41:30;2.20;;;0.57;;
34876;SDS011;21086;44.780;17.194;2022-08-01T16:44:02;1.23;;;0.52;;
34876;SDS011;21086;44.780;17.194;2022-08-01T16:46:31;2.10;;;0.52;;
34876;SDS011;21086;44.780;17.194;2022-08-01T16:48:58;1.38;;;0.70;;
34876;SDS011;21086;44.780;17.194;2022-08-01T16:51:25;3.28;;;0.85;;
34876;SDS011;21086;44.780;17.194;2022-08-01T16:53:52;1.83;;;0.77;;
34876;SDS011;21086;44.780;17.194;2022-08-01T16:56:19;1.67;;;0.70;;
34876;SDS011;21086;44.780;17.194;2022-08-01T16:58:46;3.17;;;0.80;;
34876;SDS011;21086;44.780;17.194;2022-08-01T17:01:14;7.45;;;1.15;;
34876;SDS011;21086;44.780;17.194;2022-08-01T17:04:03;3.08;;;0.60;;
34876;SDS011;21086;44.780;17.194;2022-08-01T17:06:30;5.80;;;0.88;;
34876;SDS011;21086;44.780;17.194;2022-08-01T17:08:57;1.80;;;0.88;;
34876;SDS011;21086;44.780;17.194;2022-08-01T17:11:24;4.13;;;0.93;;
34876;SDS011;21086;44.780;17.194;2022-08-01T17:13:52;1.55;;;0.70;;
34876;SDS011;21086;44.780;17.194;2022-08-01T17:16:19;2.22;;;0.90;;
34876;SDS011;21086;44.780;17.194;2022-08-01T17:18:46;2.67;;;0.75;;
34876;SDS011;21086;44.780;17.194;2022-08-01T17:21:13;1.75;;;0.88;;
34876;SDS011;21086;44.780;17.194;2022-08-01T17:23:40;1.20;;;0.70;;
34876;SDS011;21086;44.780;17.194;2022-08-01T17:26:07;1.35;;;0.80;;
34876;SDS011;21086;44.780;17.194;2022-08-01T17:28:34;2.20;;;0.88;;
34876;SDS011;21086;44.780;17.194;2022-08-01T17:31:01;1.23;;;0.98;;
34876;SDS011;21086;44.780;17.194;2022-08-01T17:33:34;2.63;;;1.10;;
34876;SDS011;21086;44.780;17.194;2022-08-01T17:36:11;2.45;;;1.15;;
34876;SDS011;21086;44.780;17.194;2022-08-01T17:38:39;1.75;;;1.15;;
34876;SDS011;21086;44.780;17.194;2022-08-01T17:41:06;1.30;;;1.05;;
34876;SDS011;21086;44.780;17.194;2022-08-01T17:43:33;4.45;;;1.08;;
34876;SDS011;21086;44.780;17.194;2022-08-01T17:46:00;2.08;;;1.10;;
34876;SDS011;21086;44.780;17.194;2022-08-01T17:48:27;1.90;;;1.20;;
34876;SDS011;21086;44.780;17.194;2022-08-01T17:50:55;5.10;;;1.42;;
34876;SDS011;21086;44.780;17.194;2022-08-01T17:53:22;3.65;;;1.20;;
34876;SDS011;21086;44.780;17.194;2022-08-01T17:55:49;3.38;;;1.55;;
34876;SDS011;21086;44.780;17.194;2022-08-01T17:58:22;1.40;;;1.27;;
34876;SDS011;21086;44.780;17.194;2022-08-01T18:01:09;1.25;;;1.10;;
34876;SDS011;21086;44.780;17.194;2022-08-01T18:03:36;2.50;;;1.20;;
34876;SDS011;21086;44.780;17.194;2022-08-01T18:06:10;1.60;;;1.20;;
34876;SDS011;21086;44.780;17.194;2022-08-01T18:08:39;2.88;;;1.15;;
34876;SDS011;21086;44.780;17.194;2022-08-01T18:11:07;1.67;;;1.23;;
34876;SDS011;21086;44.780;17.194;2022-08-01T18:13:35;2.63;;;1.42;;
34876;SDS011;21086;44.780;17.194;2022-08-01T18:16:06;2.22;;;1.38;;
34876;SDS011;21086;44.780;17.194;2022-08-01T18:18:34;2.30;;;1.50;;
34876;SDS011;21086;44.780;17.194;2022-08-01T18:21:02;3.42;;;1.13;;
34876;SDS011;21086;44.780;17.194;2022-08-01T18:23:29;2.22;;;1.40;;
34876;SDS011;21086;44.780;17.194;2022-08-01T18:25:59;1.35;;;1.10;;
34876;SDS011;21086;44.780;17.194;2022-08-01T18:28:28;2.25;;;1.30;;
34876;SDS011;21086;44.780;17.194;2022-08-01T18:31:04;1.45;;;1.00;;
34876;SDS011;21086;44.780;17.194;2022-08-01T18:33:33;1.50;;;1.30;;
34876;SDS011;21086;44.780;17.194;2022-08-01T18:36:00;2.10;;;1.50;;
34876;SDS011;21086;44.780;17.194;2022-08-01T18:38:30;3.00;;;1.50;;
34876;SDS011;21086;44.780;17.194;2022-08-01T18:40:58;2.42;;;1.60;;
34876;SDS011;21086;44.780;17.194;2022-08-01T18:43:26;4.00;;;1.60;;
34876;SDS011;21086;44.780;17.194;2022-08-01T18:45:53;6.25;;;1.80;;
34876;SDS011;21086;44.780;17.194;2022-08-01T18:48:22;6.90;;;1.63;;
34876;SDS011;21086;44.780;17.194;2022-08-01T18:50:50;2.67;;;1.60;;
34876;SDS011;21086;44.780;17.194;2022-08-01T18:53:19;2.30;;;1.40;;
34876;SDS011;21086;44.780;17.194;2022-08-01T18:55:47;8.60;;;2.15;;
34876;SDS011;21086;44.780;17.194;2022-08-01T18:58:15;5.40;;;1.88;;
34876;SDS011;21086;44.780;17.194;2022-08-01T19:00:42;11.43;;;1.52;;
34876;SDS011;21086;44.780;17.194;2022-08-01T19:03:09;4.40;;;2.10;;
34876;SDS011;21086;44.780;17.194;2022-08-01T19:05:36;4.43;;;1.95;;
34876;SDS011;21086;44.780;17.194;2022-08-01T19:08:03;7.40;;;3.25;;
34876;SDS011;21086;44.780;17.194;2022-08-01T19:10:39;3.78;;;2.65;;
34876;SDS011;21086;44.780;17.194;2022-08-01T19:13:07;4.03;;;2.30;;
34876;SDS011;21086;44.780;17.194;2022-08-01T19:15:35;5.25;;;2.42;;
34876;SDS011;21086;44.780;17.194;2022-08-01T19:18:02;5.65;;;2.33;;
34876;SDS011;21086;44.780;17.194;2022-08-01T19:20:30;4.05;;;1.88;;
34876;SDS011;21086;44.780;17.194;2022-08-01T19:22:57;4.13;;;2.70;;
34876;SDS011;21086;44.780;17.194;2022-08-01T19:25:24;6.35;;;2.40;;
34876;SDS011;21086;44.780;17.194;2022-08-01T19:27:51;3.20;;;2.03;;
34876;SDS011;21086;44.780;17.194;2022-08-01T19:30:21;6.30;;;3.17;;
34876;SDS011;21086;44.780;17.194;2022-08-01T19:32:49;5.63;;;2.50;;
34876;SDS011;21086;44.780;17.194;2022-08-01T19:35:17;4.05;;;2.42;;
34876;SDS011;21086;44.780;17.194;2022-08-01T19:37:44;6.47;;;2.72;;
34876;SDS011;21086;44.780;17.194;2022-08-01T19:40:14;5.43;;;2.45;;
34876;SDS011;21086;44.780;17.194;2022-08-01T19:42:54;7.07;;;3.20;;
34876;SDS011;21086;44.780;17.194;2022-08-01T19:45:22;5.10;;;3.17;;
34876;SDS011;21086;44.780;17.194;2022-08-01T19:47:51;5.25;;;3.85;;
34876;SDS011;21086;44.780;17.194;2022-08-01T19:50:24;5.25;;;3.75;;
34876;SDS011;21086;44.780;17.194;2022-08-01T19:52:52;4.93;;;3.15;;
34876;SDS011;21086;44.780;17.194;2022-08-01T19:55:25;4.50;;;3.25;;
34876;SDS011;21086;44.780;17.194;2022-08-01T19:57:53;10.82;;;3.30;;
34876;SDS011;21086;44.780;17.194;2022-08-01T20:00:42;7.10;;;3.70;;
34876;SDS011;21086;44.780;17.194;2022-08-01T20:03:11;7.50;;;4.10;;
34876;SDS011;21086;44.780;17.194;2022-08-01T20:05:43;5.57;;;3.83;;
34876;SDS011;21086;44.780;17.194;2022-08-01T20:08:10;4.90;;;3.10;;
34876;SDS011;21086;44.780;17.194;2022-08-01T20:10:39;7.40;;;3.15;;
34876;SDS011;21086;44.780;17.194;2022-08-01T20:13:06;10.82;;;3.50;;
34876;SDS011;21086;44.780;17.194;2022-08-01T20:15:37;7.68;;;3.72;;
34876;SDS011;21086;44.780;17.194;2022-08-01T20:18:04;9.80;;;4.55;;
34876;SDS011;21086;44.780;17.194;2022-08-01T20:20:31;10.50;;;4.45;;
34876;SDS011;21086;44.780;17.194;2022-08-01T20:23:00;8.07;;;4.45;;
34876;SDS011;21086;44.780;17.194;2022-08-01T20:25:28;13.00;;;4.90;;
34876;SDS011;21086;44.780;17.194;2022-08-01T20:28:07;6.35;;;4.22;;
34876;SDS011;21086;44.780;17.194;2022-08-01T20:30:35;9.07;;;4.35;;
34876;SDS011;21086;44.780;17.194;2022-08-01T20:33:06;5.25;;;3.65;;
34876;SDS011;21086;44.780;17.194;2022-08-01T20:35:36;9.77;;;4.18;;
34876;SDS011;21086;44.780;17.194;2022-08-01T20:38:22;8.88;;;3.90;;
34876;SDS011;21086;44.780;17.194;2022-08-01T20:40:54;5.75;;;3.38;;
34876;SDS011;21086;44.780;17.194;2022-08-01T20:43:25;8.35;;;4.10;;
34876;SDS011;21086;44.780;17.194;2022-08-01T20:45:53;6.00;;;4.05;;
34876;SDS011;21086;44.780;17.194;2022-08-01T20:48:21;6.07;;;4.03;;
34876;SDS011;21086;44.780;17.194;2022-08-01T20:50:50;5.15;;;3.03;;
34876;SDS011;21086;44.780;17.194;2022-08-01T20:53:36;5.80;;;3.30;;
34876;SDS011;21086;44.780;17.194;2022-08-01T21:01:16;4.82;;;3.13;;
34876;SDS011;21086;44.780;17.194;2022-08-01T21:07:02;3.58;;;2.13;;
34876;SDS011;21086;44.780;17.194;2022-08-01T21:09:37;4.43;;;2.10;;
34876;SDS011;21086;44.780;17.194;2022-08-01T21:12:07;4.38;;;2.15;;
34876;SDS011;21086;44.780;17.194;2022-08-01T21:17:28;4.10;;;2.17;;
34876;SDS011;21086;44.780;17.194;2022-08-01T21:20:03;6.75;;;2.90;;
34876;SDS011;21086;44.780;17.194;2022-08-01T21:22:55;4.30;;;2.90;;
34876;SDS011;21086;44.780;17.194;2022-08-01T21:25:40;3.78;;;2.40;;
34876;SDS011;21086;44.780;17.194;2022-08-01T21:28:07;3.72;;;2.70;;
34876;SDS011;21086;44.780;17.194;2022-08-01T21:30:38;3.63;;;2.35;;
34876;SDS011;21086;44.780;17.194;2022-08-01T21:33:08;2.78;;;2.25;;
34876;SDS011;21086;44.780;17.194;2022-08-01T21:35:38;6.72;;;2.53;;
34876;SDS011;21086;44.780;17.194;2022-08-01T21:38:06;3.33;;;2.25;;
34876;SDS011;21086;44.780;17.194;2022-08-01T21:40:34;3.50;;;1.90;;
34876;SDS011;21086;44.780;17.194;2022-08-01T21:43:02;2.92;;;2.10;;
34876;SDS011;21086;44.780;17.194;2022-08-01T21:45:29;4.60;;;2.40;;
34876;SDS011;21086;44.780;17.194;2022-08-01T21:47:57;6.78;;;3.35;;
34876;SDS011;21086;44.780;17.194;2022-08-01T21:50:25;4.78;;;2.90;;
34876;SDS011;21086;44.780;17.194;2022-08-01T21:58:43;7.50;;;3.50;;
34876;SDS011;21086;44.780;17.194;2022-08-01T22:01:26;7.18;;;4.80;;
34876;SDS011;21086;44.780;17.194;2022-08-01T22:04:18;6.15;;;4.65;;
34876;SDS011;21086;44.780;17.194;2022-08-01T22:06:56;8.95;;;4.53;;
34876;SDS011;21086;44.780;17.194;2022-08-01T22:09:25;13.35;;;5.15;;
34876;SDS011;21086;44.780;17.194;2022-08-01T22:11:52;6.85;;;3.65;;
34876;SDS011;21086;44.780;17.194;2022-08-01T22:14:26;6.10;;;3.38;;
34876;SDS011;21086;44.780;17.194;2022-08-01T22:16:56;4.28;;;2.38;;
34876;SDS011;21086;44.780;17.194;2022-08-01T22:19:25;7.00;;;2.95;;
34876;SDS011;21086;44.780;17.194;2022-08-01T22:22:09;2.60;;;2.10;;
34876;SDS011;21086;44.780;17.194;2022-08-01T22:24:57;4.28;;;2.38;;
34876;SDS011;21086;44.780;17.194;2022-08-01T22:27:25;3.80;;;2.35;;
34876;SDS011;21086;44.780;17.194;2022-08-01T22:30:13;3.85;;;2.42;;
34876;SDS011;21086;44.780;17.194;2022-08-01T22:32:41;5.22;;;2.50;;
34876;SDS011;21086;44.780;17.194;2022-08-01T22:35:29;6.53;;;2.33;;
34876;SDS011;21086;44.780;17.194;2022-08-01T22:37:57;2.83;;;2.13;;
34876;SDS011;21086;44.780;17.194;2022-08-01T22:40:26;3.40;;;2.30;;
34876;SDS011;21086;44.780;17.194;2022-08-01T22:42:54;2.67;;;1.95;;
34876;SDS011;21086;44.780;17.194;2022-08-01T22:45:34;3.72;;;2.20;;
34876;SDS011;21086;44.780;17.194;2022-08-01T22:51:03;10.68;;;2.33;;
34876;SDS011;21086;44.780;17.194;2022-08-01T22:56:08;2.85;;;2.30;;